Time;durP1;ratioP1;P1;durP2;ratioP2;P2;SDS_P1;SDS_P2;PMS_P1;PMS_P2;Temp;Humidity;BMP_temperature;BMP_pressure;BME280_temperature;BME280_humidity;BME280_pressure;Samples;Min_cycle;Max_cycle;Signal;HPM_P1;HPM_P2
2022/10/13 00:00:22;;;;;;;;;19.00;16.75;;;;;14.27;65.26;101142.63;5078590;27;46953;-87
2022/10/13 00:02:48;;;;;;;;;20.00;18.00;;;;;14.63;65.18;101211.72;5080281;27;46068;-87
2022/10/13 00:05:13;;;;;;;;;18.25;16.25;;;;;14.40;65.68;101164.44;5079401;27;45490;-86
2022/10/13 00:07:38;;;;;;;;;24.00;20.25;;;;;14.13;65.43;101121.72;5095429;27;45398;-85
2022/10/13 00:10:04;;;;;;;;;17.25;17.25;;;;;14.30;65.83;101139.00;5095493;27;45435;-86
2022/10/13 00:12:33;;;;;;;;;17.50;16.00;;;;;14.91;65.33;101238.47;5078608;27;45496;-86
2022/10/13 00:14:58;;;;;;;;;19.25;16.25;;;;;14.64;65.56;101197.53;5079315;27;45524;-85
2022/10/13 00:17:24;;;;;;;;;22.00;18.50;;;;;14.45;65.40;101166.97;5096123;27;45283;-85
2022/10/13 00:19:49;;;;;;;;;17.25;17.25;;;;;14.56;65.51;101183.50;5095807;27;46449;-86
2022/10/13 00:22:14;;;;;;;;;20.50;18.25;;;;;14.62;65.73;101210.00;5074878;27;47895;-85
2022/10/13 00:24:40;;;;;;;;;21.25;15.50;;;;;14.88;65.25;101254.53;5080243;27;45538;-87
2022/10/13 00:27:05;;;;;;;;;19.00;17.50;;;;;13.94;65.44;101094.75;5096092;27;45436;-86
2022/10/13 00:29:30;;;;;;;;;21.25;17.50;;;;;14.01;65.31;101099.00;5095710;27;46569;-85
2022/10/13 00:31:56;;;;;;;;;16.50;16.50;;;;;14.12;65.21;101105.81;5096032;27;45582;-86
2022/10/13 00:34:21;;;;;;;;;19.75;16.00;;;;;14.62;65.60;101183.41;5097008;27;45508;-87
2022/10/13 00:36:47;;;;;;;;;26.25;18.75;;;;;14.72;65.31;101202.63;5096412;27;45520;-87
2022/10/13 00:39:12;;;;;;;;;18.25;16.25;;;;;14.17;65.07;101110.09;5096658;27;45722;-87
2022/10/13 00:41:37;;;;;;;;;8.50;5.00;;;;;13.90;65.60;101050.56;5079369;27;45753;-87
2022/10/13 00:44:24;;;;;;;;;19.25;17.75;;;;;14.34;65.75;101117.59;5078124;27;45454;-87
2022/10/13 00:46:50;;;;;;;;;20.00;18.00;;;;;14.79;65.98;101195.34;5084807;27;45652;-87
2022/10/13 00:49:15;;;;;;;;;19.75;16.50;;;;;13.97;66.12;101068.09;5061778;28;47182;-87
2022/10/13 00:51:45;;;;;;;;;18.75;17.00;;;;;14.47;65.71;101157.16;5077114;28;45383;-87
2022/10/13 00:54:16;;;;;;;;;20.00;18.25;;;;;13.46;66.32;100991.50;5092012;27;45394;-85
2022/10/13 00:56:42;;;;;;;;;21.25;18.50;;;;;14.19;66.66;101120.69;5076463;27;45597;-85
2022/10/13 00:59:16;;;;;;;;;19.25;16.75;;;;;14.27;66.41;101141.75;5096186;27;45474;-85
2022/10/13 01:01:41;;;;;;;;;16.50;14.75;;;;;14.67;66.66;101202.75;5077286;27;45455;-85
2022/10/13 01:04:06;;;;;;;;;18.00;18.00;;;;;14.23;66.54;101138.31;5075614;27;45406;-85
2022/10/13 01:06:33;;;;;;;;;21.50;18.50;;;;;13.81;67.41;101058.78;5082460;27;45356;-85
2022/10/13 01:08:58;;;;;;;;;19.75;17.50;;;;;13.59;67.19;101035.44;5096018;27;45414;-85
2022/10/13 01:11:40;;;;;;;;;19.50;17.00;;;;;13.89;67.19;101088.66;5073350;28;45454;-85
2022/10/13 01:14:17;;;;;;;;;19.75;17.25;;;;;14.62;67.07;101218.00;5090260;27;45446;-85
2022/10/13 01:16:55;;;;;;;;;20.00;17.25;;;;;14.61;67.50;101212.72;5065246;27;45486;-85
2022/10/13 01:20:01;;;;;;;;;17.00;16.75;;;;;14.39;67.72;101171.56;5096806;27;46155;-87
2022/10/13 01:22:45;;;;;;;;;18.75;16.75;;;;;14.57;67.69;101188.81;5064283;27;45691;-86
2022/10/13 01:25:48;;;;;;;;;19.50;17.00;;;;;14.55;68.21;101197.75;5089680;27;45456;-87
2022/10/13 01:28:44;;;;;;;;;20.00;17.25;;;;;14.45;67.47;101190.91;5057543;27;45517;-86
2022/10/13 01:31:18;;;;;;;;;25.75;18.50;;;;;14.57;67.89;101207.44;5057650;28;48067;-87
2022/10/13 01:34:01;;;;;;;;;19.75;19.50;;;;;14.19;68.31;101147.25;5073347;27;45992;-87
2022/10/13 01:36:56;;;;;;;;;24.00;18.75;;;;;13.72;67.69;101059.00;5077523;27;45370;-87
2022/10/13 01:39:41;;;;;;;;;22.00;18.75;;;;;14.18;68.24;101145.50;5077468;27;45352;-86
2022/10/13 01:42:17;;;;;;;;;26.50;19.00;;;;;13.27;68.69;100988.38;5076515;27;47481;-87
2022/10/13 01:44:51;;;;;;;;;21.75;21.75;;;;;13.96;68.41;101108.84;5078944;27;45360;-86
2022/10/13 01:47:18;;;;;;;;;15.75;13.75;;;;;14.44;68.46;101199.78;5064486;28;45354;-86
2022/10/13 01:49:44;;;;;;;;;21.00;19.00;;;;;14.17;68.51;101154.41;5057641;28;45576;-86
2022/10/13 01:52:14;;;;;;;;;21.00;21.00;;;;;13.23;68.89;101010.63;5057993;27;47796;-87
2022/10/13 01:54:39;;;;;;;;;22.00;18.25;;;;;14.07;69.19;101163.53;5094351;27;45455;-87
2022/10/13 01:57:32;;;;;;;;;25.50;18.75;;;;;14.35;69.33;101196.47;5081862;27;45444;-87
2022/10/13 02:00:07;;;;;;;;;20.50;17.75;;;;;13.97;68.70;101126.56;5075995;27;45453;-86
2022/10/13 02:02:39;;;;;;;;;21.25;15.25;;;;;13.64;69.04;101070.69;5078355;27;46603;-87
2022/10/13 02:05:24;;;;;;;;;20.75;16.50;;;;;14.26;69.47;101180.75;5076155;27;45578;-86
2022/10/13 02:08:05;;;;;;;;;22.25;22.25;;;;;14.27;69.74;101193.16;5076390;27;45524;-87
2022/10/13 02:10:39;;;;;;;;;19.50;18.50;;;;;13.59;69.82;101066.41;5077048;27;45510;-86
2022/10/13 02:13:07;;;;;;;;;23.25;19.00;;;;;13.93;69.75;101122.22;5074381;27;47289;-87
2022/10/13 02:15:39;;;;;;;;;23.50;20.00;;;;;14.26;69.87;101175.44;5074688;27;45507;-87
2022/10/13 02:18:07;;;;;;;;;19.00;18.00;;;;;13.59;69.39;101075.25;5071796;28;45491;-85
2022/10/13 02:20:33;;;;;;;;;19.75;18.50;;;;;13.97;69.74;101123.91;5073768;27;45485;-85
2022/10/13 02:23:03;;;;;;;;;20.75;17.00;;;;;13.51;69.60;101037.38;5074626;27;45511;-85
2022/10/13 02:25:29;;;;;;;;;16.75;14.50;;;;;13.67;69.57;101062.66;5072756;27;45525;-85
2022/10/13 02:27:58;;;;;;;;;20.75;15.00;;;;;13.66;69.26;101052.06;5073095;28;45508;-85
2022/10/13 02:30:26;;;;;;;;;18.00;16.75;;;;;13.10;69.82;100957.84;5074300;27;45512;-85
2022/10/13 02:32:52;;;;;;;;;17.25;17.25;;;;;13.63;69.53;101041.53;5073064;27;47260;-85
2022/10/13 02:35:17;;;;;;;;;16.00;14.00;;;;;13.91;69.67;101084.19;5072432;27;45503;-85
2022/10/13 02:37:42;;;;;;;;;14.75;14.75;;;;;13.70;69.75;101047.56;5073832;28;45472;-85
2022/10/13 02:40:08;;;;;;;;;18.50;17.25;;;;;13.39;70.31;100995.22;5073959;28;45641;-85
2022/10/13 02:42:34;;;;;;;;;19.25;15.00;;;;;14.01;70.06;101082.16;5079303;27;45419;-87
2022/10/13 02:44:59;;;;;;;;;18.25;18.25;;;;;13.73;70.10;101031.56;5078952;27;45417;-87
2022/10/13 02:47:25;;;;;;;;;19.00;18.00;;;;;13.87;69.86;101040.00;5075533;27;45399;-86
2022/10/13 02:49:50;;;;;;;;;17.75;16.25;;;;;14.15;70.20;101092.44;5072565;28;45606;-87
2022/10/13 02:52:15;;;;;;;;;20.25;14.00;;;;;13.79;70.68;101032.25;5074511;27;46082;-87
2022/10/13 02:54:41;;;;;;;;;15.25;15.25;;;;;13.79;70.12;101026.06;5073689;28;45489;-87
2022/10/13 02:57:06;;;;;;;;;14.00;13.00;;;;;13.30;70.07;100967.97;5074837;28;45710;-87
2022/10/13 02:59:31;;;;;;;;;19.50;16.25;;;;;13.68;70.69;101036.97;5074429;27;45520;-87
2022/10/13 03:01:57;;;;;;;;;14.00;14.00;;;;;13.61;70.79;101033.59;5073184;28;48108;-87
2022/10/13 03:04:22;;;;;;;;;13.25;13.00;;;;;13.76;70.83;101060.69;5074439;27;45411;-87
2022/10/13 03:06:47;;;;;;;;;17.25;14.00;;;;;13.66;70.93;101047.66;5072223;27;45982;-87
2022/10/13 03:09:13;;;;;;;;;16.50;14.00;;;;;13.40;70.75;101005.78;5073260;28;45577;-87
2022/10/13 03:11:39;;;;;;;;;11.00;11.00;;;;;13.57;71.23;101007.16;5076204;27;48169;-86
2022/10/13 03:14:07;;;;;;;;;12.75;12.75;;;;;14.27;71.10;101131.09;5096919;27;45385;-87
2022/10/13 03:16:32;;;;;;;;;19.00;17.50;;;;;13.55;71.11;101015.16;5075138;27;45529;-87
2022/10/13 03:18:58;;;;;;;;;14.25;14.25;;;;;13.74;70.92;101041.25;5075525;27;45564;-87
2022/10/13 03:21:23;;;;;;;;;14.50;13.00;;;;;13.60;71.05;101017.69;5062754;28;47942;-86
2022/10/13 03:23:48;;;;;;;;;14.00;14.00;;;;;13.62;70.89;101023.81;5073738;27;45446;-87
2022/10/13 03:26:15;;;;;;;;;16.00;12.50;;;;;13.53;71.18;100994.84;5075138;27;45563;-87
2022/10/13 03:28:40;;;;;;;;;12.25;11.25;;;;;13.62;71.40;101000.81;5075435;27;45649;-87
2022/10/13 03:31:07;;;;;;;;;16.50;14.00;;;;;13.95;71.12;101047.78;5077017;27;48167;-86
2022/10/13 03:33:33;;;;;;;;;15.25;15.25;;;;;14.17;70.80;101090.63;5077220;27;46096;-86
2022/10/13 03:36:00;;;;;;;;;12.50;11.00;;;;;14.02;71.19;101060.88;5075602;27;45597;-87
2022/10/13 03:38:27;;;;;;;;;14.00;13.75;;;;;14.01;71.72;101080.41;5075645;27;45739;-86
2022/10/13 03:40:52;;;;;;;;;17.50;17.00;;;;;13.40;71.67;100971.28;5093420;27;45491;-87
2022/10/13 03:43:17;;;;;;;;;15.00;15.00;;;;;13.28;71.88;100963.59;5092874;27;49750;-87
2022/10/13 03:45:43;;;;;;;;;19.75;17.00;;;;;13.52;71.61;100991.34;5075849;27;45410;-87
2022/10/13 03:48:08;;;;;;;;;16.25;12.50;;;;;13.49;71.75;100986.09;5074830;27;45521;-87
2022/10/13 03:50:33;;;;;;;;;17.50;14.50;;;;;13.80;71.86;101047.28;5077273;27;47096;-87
2022/10/13 03:52:58;;;;;;;;;15.75;15.25;;;;;13.60;71.96;101015.03;5075872;27;45501;-87
2022/10/13 03:55:24;;;;;;;;;16.00;14.75;;;;;13.00;72.16;100897.94;5094287;27;45478;-87
2022/10/13 03:57:49;;;;;;;;;18.50;13.00;;;;;13.25;71.97;100935.34;5093091;27;45547;-87
2022/10/13 04:00:15;;;;;;;;;17.50;17.25;;;;;14.01;71.85;101068.88;5076293;27;49062;-86
2022/10/13 04:02:41;;;;;;;;;19.00;17.50;;;;;13.99;72.03;101076.03;5075667;27;45927;-87
2022/10/13 04:05:07;;;;;;;;;19.25;14.75;;;;;13.00;72.53;100923.59;5093579;27;45604;-87
2022/10/13 04:07:32;;;;;;;;;15.00;13.50;;;;;13.60;72.20;101021.22;5095039;27;45543;-86
2022/10/13 04:09:57;;;;;;;;;13.25;11.75;;;;;13.31;72.40;100971.47;5075864;27;48249;-86
2022/10/13 04:12:23;;;;;;;;;18.50;15.50;;;;;13.72;72.60;101051.03;5094309;27;45484;-87
2022/10/13 04:14:48;;;;;;;;;16.25;14.00;;;;;12.74;72.00;100869.41;5092218;27;47695;-86
2022/10/13 04:17:13;;;;;;;;;14.75;14.75;;;;;13.37;72.21;100970.50;5075867;27;45534;-87
2022/10/13 04:19:39;;;;;;;;;14.25;14.00;;;;;13.25;72.49;100945.94;5075112;27;46983;-86
2022/10/13 04:22:04;;;;;;;;;18.25;14.00;;;;;13.31;72.85;100984.75;5094599;27;45503;-86
2022/10/13 04:24:30;;;;;;;;;16.50;13.25;;;;;13.75;72.75;101054.47;5076852;27;45533;-86
2022/10/13 04:26:55;;;;;;;;;15.50;14.50;;;;;13.49;72.48;101007.34;5084531;27;45624;-86
2022/10/13 04:29:21;;;;;;;;;15.25;14.00;;;;;12.62;72.60;100855.53;5078995;27;46868;-86
2022/10/13 04:31:46;;;;;;;;;19.00;14.25;;;;;13.37;72.71;100981.09;5094212;27;45384;-86
2022/10/13 04:34:12;;;;;;;;;16.75;14.00;;;;;13.35;72.22;100994.44;5097248;27;45492;-86
2022/10/13 04:36:37;;;;;;;;;14.75;12.25;;;;;13.80;72.60;101057.03;5098129;27;45551;-86
2022/10/13 04:39:03;;;;;;;;;12.50;11.25;;;;;13.72;72.55;101045.72;5084224;27;47173;-86
2022/10/13 04:41:29;;;;;;;;;19.00;14.25;;;;;13.98;72.92;101088.47;5104917;27;45365;-87
2022/10/13 04:43:55;;;;;;;;;17.50;14.75;;;;;13.99;72.48;101090.19;5101698;27;45412;-86
2022/10/13 04:46:24;;;;;;;;;16.75;14.75;;;;;13.40;72.52;100983.69;5080926;27;45347;-86
2022/10/13 04:48:50;;;;;;;;;17.50;17.00;;;;;13.80;72.49;101051.72;5070396;28;48136;-85
2022/10/13 04:51:19;;;;;;;;;16.75;15.25;;;;;13.46;72.68;100978.22;5086967;27;45512;-85
2022/10/13 04:53:45;;;;;;;;;15.25;13.00;;;;;13.53;72.25;100992.19;5078969;27;45516;-85
2022/10/13 04:56:13;;;;;;;;;11.50;11.25;;;;;13.63;72.07;101020.28;5096320;27;45474;-85
2022/10/13 04:58:39;;;;;;;;;13.00;12.25;;;;;14.11;72.54;101080.16;5075749;27;48510;-85
2022/10/13 05:01:07;;;;;;;;;12.00;12.00;;;;;14.02;71.50;101058.22;5097657;27;45476;-85
2022/10/13 05:03:33;;;;;;;;;14.75;13.00;;;;;13.90;71.89;101034.63;5078874;27;45401;-85
2022/10/13 05:05:59;;;;;;;;;9.75;8.00;;;;;13.95;72.00;101043.34;5096031;27;45363;-85
2022/10/13 05:08:24;;;;;;;;;15.50;12.25;;;;;13.01;71.95;100882.88;5077891;27;46986;-85
2022/10/13 05:10:58;;;;;;;;;13.25;9.50;;;;;13.25;72.05;100927.38;5078001;27;45418;-85
2022/10/13 05:13:24;;;;;;;;;17.50;16.50;;;;;13.38;72.10;100940.38;5077582;27;45496;-85
2022/10/13 05:15:50;;;;;;;;;14.00;13.50;;;;;13.70;72.17;101003.28;5096593;27;45556;-85
2022/10/13 05:18:15;;;;;;;;;16.75;15.00;;;;;12.90;72.24;100880.50;5095768;27;45500;-84
2022/10/13 05:20:41;;;;;;;;;18.50;14.25;;;;;13.14;72.29;100922.34;5078759;27;45506;-84
2022/10/13 05:23:06;;;;;;;;;14.00;12.75;;;;;12.87;71.96;100886.75;5078567;27;45418;-85
2022/10/13 05:25:33;;;;;;;;;11.75;10.50;;;;;13.90;72.99;101044.38;5088278;27;45554;-84
2022/10/13 05:27:59;;;;;;;;;12.25;11.00;;;;;13.39;72.40;100969.56;5077804;27;47997;-87
2022/10/13 05:30:25;;;;;;;;;14.00;14.00;;;;;13.30;72.90;100954.69;5077111;27;45430;-86
2022/10/13 05:32:50;;;;;;;;;12.25;12.25;;;;;13.58;72.66;100980.56;5097283;27;45338;-86
2022/10/13 05:35:15;;;;;;;;;12.75;12.75;;;;;13.34;73.18;100936.91;5077679;27;45488;-87
2022/10/13 05:37:41;;;;;;;;;14.25;13.00;;;;;14.01;72.96;101061.78;5078614;27;45438;-87
2022/10/13 05:40:06;;;;;;;;;14.25;12.50;;;;;13.84;72.62;101021.50;5079238;27;45416;-86
2022/10/13 05:42:34;;;;;;;;;13.75;12.00;;;;;13.68;72.58;100987.38;5096716;27;45412;-85
2022/10/13 05:45:00;;;;;;;;;18.25;13.75;;;;;13.81;72.81;101006.50;5075876;27;45525;-84
2022/10/13 05:47:27;;;;;;;;;10.75;10.75;;;;;13.28;72.89;100910.50;5076625;27;46865;-86
2022/10/13 05:49:53;;;;;;;;;11.75;8.75;;;;;13.71;73.26;100980.22;5076252;27;45446;-86
2022/10/13 05:52:20;;;;;;;;;15.25;13.00;;;;;13.57;72.51;100957.56;5095409;27;45365;-85
2022/10/13 05:54:49;;;;;;;;;13.50;12.00;;;;;13.76;72.72;100971.22;5075908;27;45509;-85
2022/10/13 05:57:37;;;;;;;;;12.75;10.75;;;;;13.45;72.79;100941.94;5081544;27;47078;-85
2022/10/13 06:00:12;;;;;;;;;16.00;11.00;;;;;13.90;73.06;100992.09;5100663;27;45437;-85
2022/10/13 06:02:42;;;;;;;;;15.00;13.00;;;;;13.75;72.99;100971.28;5081856;27;45358;-87
2022/10/13 06:05:12;;;;;;;;;13.00;10.25;;;;;13.88;72.63;101001.03;5097632;27;45366;-87
2022/10/13 06:07:38;;;;;;;;;15.25;13.00;;;;;13.47;73.08;100946.31;5078021;27;47277;-87
2022/10/13 06:10:04;;;;;;;;;17.50;13.75;;;;;13.14;72.61;100889.63;5077707;27;45487;-87
2022/10/13 06:12:29;;;;;;;;;15.25;12.50;;;;;13.89;72.73;101006.28;5073664;27;45534;-87
2022/10/13 06:14:54;;;;;;;;;13.75;12.50;;;;;14.12;72.76;101061.50;5090041;27;45552;-88
2022/10/13 06:17:20;;;;;;;;;11.50;10.50;;;;;13.94;72.52;101014.13;5078823;27;46050;-88
2022/10/13 06:19:45;;;;;;;;;13.75;13.25;;;;;12.94;72.49;100848.56;5077750;27;45482;-85
2022/10/13 06:22:10;;;;;;;;;10.25;9.50;;;;;13.75;72.26;100969.47;5095775;27;45573;-86
2022/10/13 06:24:36;;;;;;;;;11.75;10.75;;;;;14.01;72.17;101019.28;5092015;27;45471;-86
2022/10/13 06:27:01;;;;;;;;;11.00;9.75;;;;;14.16;72.05;101041.88;5089956;27;46211;-86
2022/10/13 06:29:27;;;;;;;;;12.00;12.00;;;;;13.53;71.88;100939.97;5094227;27;45477;-85
2022/10/13 06:31:52;;;;;;;;;10.75;10.25;;;;;13.19;71.53;100877.09;5095192;27;45390;-87
2022/10/13 06:34:17;;;;;;;;;6.25;5.00;;;;;13.54;71.73;100914.28;5095894;27;45505;-86
2022/10/13 06:36:43;;;;;;;;;9.00;7.75;;;;;13.41;71.02;100897.84;5076915;27;48348;-84
2022/10/13 06:39:09;;;;;;;;;12.00;9.25;;;;;13.97;71.08;100998.16;5097994;27;45504;-84
2022/10/13 06:41:34;;;;;;;;;10.75;9.75;;;;;14.12;71.07;101012.78;5074953;27;45518;-84
2022/10/13 06:44:00;;;;;;;;;12.00;9.00;;;;;14.10;70.87;101003.97;5092978;27;45552;-84
2022/10/13 06:46:25;;;;;;;;;16.75;12.25;;;;;13.06;70.97;100836.75;5094682;27;45459;-86
2022/10/13 06:48:50;;;;;;;;;12.50;12.50;;;;;13.81;71.21;100960.47;5075026;27;45400;-85
2022/10/13 06:51:16;;;;;;;;;11.75;10.00;;;;;13.27;71.12;100861.88;5057525;28;45526;-85
2022/10/13 06:53:41;;;;;;;;;11.00;9.00;;;;;13.78;71.09;100955.25;5093165;27;45611;-84
2022/10/13 06:56:08;;;;;;;;;12.50;11.50;;;;;13.60;71.26;100920.28;5087128;27;46258;-86
2022/10/13 06:58:45;;;;;;;;;10.50;9.00;;;;;13.86;71.22;100961.22;5065014;27;45369;-84
2022/10/13 07:01:13;;;;;;;;;14.00;11.00;;;;;14.33;71.31;101046.75;5093276;27;45271;-85
2022/10/13 07:03:42;;;;;;;;;11.00;7.75;;;;;11.42;70.75;100550.19;5093860;27;45508;-85
2022/10/13 07:07:00;;;;;;;;;;;;;;;;;;;;;
2022/10/13 07:13:00;;;;;;;;;13.00;7.25;;;;;13.85;70.66;100972.78;4969001;28;45494;-85
2022/10/13 07:15:51;;;;;;;;;8.00;8.00;;;;;12.35;69.96;100702.47;4973514;28;45639;-86
2022/10/13 07:19:18;;;;;;;;;;;;;;;;;;;;;
2022/10/13 07:21:43;;;;;;;;;10.00;10.00;;;;;13.61;70.76;100927.34;4987342;28;72136;-87
2022/10/13 07:24:10;;;;;;;;;15.50;9.25;;;;;14.01;71.02;100992.69;4984056;28;45521;-87
2022/10/13 07:26:35;;;;;;;;;9.25;7.25;;;;;13.42;70.76;100878.31;4973537;28;45662;-87
2022/10/13 07:29:01;;;;;;;;;8.50;6.75;;;;;13.59;70.33;100904.41;4976633;28;48111;-90
2022/10/13 07:31:26;;;;;;;;;7.50;7.50;;;;;13.68;71.01;100923.63;4988562;28;45853;-86
2022/10/13 07:33:51;;;;;;;;;8.25;8.25;;;;;13.43;70.79;100859.69;4990135;28;45547;-87
2022/10/13 07:36:18;;;;;;;;;8.00;8.00;;;;;14.36;70.84;101014.75;4991547;28;45472;-86
2022/10/13 07:38:43;;;;;;;;;12.75;10.50;;;;;14.43;70.04;101022.56;4998754;27;45637;-86
2022/10/13 07:41:12;;;;;;;;;12.00;8.50;;;;;14.01;69.62;100949.28;5094028;27;45495;-90
2022/10/13 07:43:41;;;;;;;;;9.00;9.00;;;;;14.61;69.79;101059.28;5069509;27;45471;-90
2022/10/13 07:46:07;;;;;;;;;4.75;3.00;;;;;13.88;69.83;100935.50;5076463;27;45514;-86
2022/10/13 07:48:33;;;;;;;;;8.25;8.25;;;;;14.20;69.88;100981.53;5094509;27;46609;-86
2022/10/13 07:51:03;;;;;;;;;7.50;6.50;;;;;13.64;69.71;100895.41;5074761;27;45384;-86
2022/10/13 07:53:28;;;;;;;;;8.50;7.50;;;;;13.92;69.44;100921.19;5094224;27;45509;-87
2022/10/13 07:55:53;;;;;;;;;11.50;6.75;;;;;14.14;68.86;100949.81;5075087;27;45437;-87
2022/10/13 07:58:19;;;;;;;;;11.00;7.50;;;;;14.34;68.73;100987.31;5067678;27;47308;-90
2022/10/13 08:00:44;;;;;;;;;6.00;6.00;;;;;14.40;68.08;100971.19;5074746;27;45421;-89
2022/10/13 08:03:09;;;;;;;;;6.00;6.00;;;;;13.88;68.53;100877.03;5074829;27;45503;-86
2022/10/13 08:05:38;;;;;;;;;9.00;7.25;;;;;14.10;68.53;100921.59;5087981;27;45588;-86
2022/10/13 08:08:03;;;;;;;;;10.00;7.50;;;;;14.83;68.17;101037.34;5095405;27;45501;-86
2022/10/13 08:10:29;;;;;;;;;5.25;5.25;;;;;14.49;68.14;100982.47;5075901;27;45675;-89
2022/10/13 08:12:54;;;;;;;;;8.00;8.00;;;;;14.93;67.59;101078.75;5093843;27;45387;-88
2022/10/13 08:15:20;;;;;;;;;6.00;5.00;;;;;14.16;67.90;100942.66;5075937;27;45580;-89
2022/10/13 08:17:45;;;;;;;;;6.00;5.00;;;;;14.42;68.07;100978.25;5095588;27;45451;-89
2022/10/13 08:20:11;;;;;;;;;7.25;7.25;;;;;14.31;67.62;100974.13;5076986;27;45556;-86
2022/10/13 08:22:37;;;;;;;;;5.50;4.00;;;;;14.68;67.66;101036.91;5076506;27;45512;-86
2022/10/13 08:25:03;;;;;;;;;4.75;4.75;;;;;14.89;67.93;101059.34;5077704;27;45627;-88
2022/10/13 08:27:28;;;;;;;;;6.00;6.00;;;;;14.98;67.99;101074.13;5077223;27;47038;-89
2022/10/13 08:29:54;;;;;;;;;7.00;5.75;;;;;14.98;68.04;101074.13;5077123;27;45786;-86
2022/10/13 08:32:23;;;;;;;;;6.75;4.00;;;;;13.97;67.88;100907.78;5089014;27;45581;-89
2022/10/13 08:34:49;;;;;;;;;11.00;8.00;;;;;14.17;67.95;100944.41;5087903;27;45441;-87
2022/10/13 08:37:16;;;;;;;;;6.00;6.00;;;;;14.98;67.91;101074.13;5102192;27;45612;-85
2022/10/13 08:39:41;;;;;;;;;8.50;5.50;;;;;14.52;67.46;100987.72;5094158;27;45586;-85
2022/10/13 08:42:21;;;;;;;;;12.50;10.00;;;;;15.06;67.54;101077.47;5076209;27;45545;-88
2022/10/13 08:44:49;;;;;;;;;5.25;5.25;;;;;14.91;67.36;101049.50;5074646;27;45505;-87
2022/10/13 08:47:33;;;;;;;;;6.50;6.50;;;;;15.20;66.79;101092.13;5090870;27;45433;-88
2022/10/13 08:50:03;;;;;;;;;4.00;4.00;;;;;14.67;67.18;100997.91;5076034;27;45517;-87
2022/10/13 08:52:45;;;;;;;;;4.50;4.00;;;;;15.14;67.03;101042.59;5073036;27;45446;-86
2022/10/13 08:55:43;;;;;;;;;4.25;4.25;;;;;15.49;66.50;101082.31;5074447;27;45556;-89
2022/10/13 08:58:14;;;;;;;;;3.50;3.25;;;;;15.45;66.25;101066.44;5077509;27;48235;-87
2022/10/13 09:00:40;;;;;;;;;6.25;5.25;;;;;14.59;66.10;100928.09;5093731;27;45335;-87
2022/10/13 09:03:27;;;;;;;;;9.00;5.75;;;;;14.97;65.75;100963.31;5070787;27;45842;-86
2022/10/13 09:06:12;;;;;;;;;6.00;4.00;;;;;15.81;65.51;101071.50;5068166;27;45441;-89
2022/10/13 09:08:42;;;;;;;;;8.50;4.00;;;;;15.43;65.19;100985.72;5087238;27;48410;-89
2022/10/13 09:11:11;;;;;;;;;4.75;4.25;;;;;16.07;65.17;101076.88;5079075;27;45565;-89
2022/10/13 09:13:36;;;;;;;;;6.00;5.50;;;;;15.28;64.08;100922.34;5078113;27;45538;-88
2022/10/13 09:16:02;;;;;;;;;4.00;3.25;;;;;15.17;64.29;100881.88;5074726;27;45532;-87
2022/10/13 09:18:30;;;;;;;;;5.25;5.25;;;;;15.63;63.99;100950.41;5076640;27;45598;-89
2022/10/13 09:21:29;;;;;;;;;11.25;10.25;;;;;16.18;63.57;101034.69;5076294;27;45724;-87
2022/10/13 09:24:11;;;;;;;;;5.00;5.00;;;;;16.37;63.27;101058.91;4976386;28;45434;-90
2022/10/13 09:26:38;;;;;;;;;4.75;4.75;;;;;16.21;63.46;101031.06;4992011;28;45489;-89
2022/10/13 09:29:15;;;;;;;;;6.00;5.00;;;;;16.54;62.82;101076.97;4975979;28;47141;-89
2022/10/13 09:31:41;;;;;;;;;6.00;5.50;;;;;15.37;63.19;100873.22;4976214;28;46000;-88
2022/10/13 09:34:29;;;;;;;;;4.25;4.25;;;;;16.08;63.67;100978.19;4993967;28;45560;-89
2022/10/13 09:37:02;;;;;;;;;5.75;5.00;;;;;16.25;63.12;100995.34;4978390;28;45394;-89
2022/10/13 09:39:30;;;;;;;;;6.00;4.25;;;;;16.34;62.97;100997.69;4976370;28;47356;-89
2022/10/13 09:42:19;;;;;;;;;5.00;5.00;;;;;16.68;63.20;101055.94;4975882;28;45533;-89
2022/10/13 09:44:46;;;;;;;;;5.00;4.00;;;;;16.70;63.31;101056.78;4992096;28;45472;-88
2022/10/13 09:47:24;;;;;;;;;4.00;3.00;;;;;16.62;63.79;101058.00;4975662;28;45471;-88
2022/10/13 09:50:18;;;;;;;;;4.00;3.00;;;;;16.59;64.35;101055.44;4972946;28;47084;-88
2022/10/13 09:52:45;;;;;;;;;5.50;4.00;;;;;16.47;65.35;101055.00;4976247;28;45484;-88
2022/10/13 09:55:32;;;;;;;;;6.25;5.25;;;;;16.03;66.90;100979.25;4992354;28;45441;-88
2022/10/13 09:58:33;;;;;;;;;5.25;4.25;;;;;16.49;66.23;101061.13;4975009;28;45445;-88
2022/10/13 10:00:58;;;;;;;;;3.00;3.00;;;;;15.88;66.35;100954.03;5028267;28;45569;-89
2022/10/13 10:03:32;;;;;;;;;4.50;4.50;;;;;16.42;66.23;101051.59;5035578;28;45536;-87
2022/10/13 10:05:59;;;;;;;;;4.75;3.00;;;;;16.53;66.44;101072.53;5008967;28;45435;-85
2022/10/13 10:08:50;;;;;;;;;4.00;3.00;;;;;16.06;66.36;101011.16;5013823;28;45420;-85
2022/10/13 10:11:28;;;;;;;;;5.25;4.75;;;;;15.95;66.54;100992.88;5031113;28;46345;-85
2022/10/13 10:13:54;;;;;;;;;6.25;5.00;;;;;16.16;66.71;101023.22;5030913;28;45461;-85
2022/10/13 10:16:34;;;;;;;;;4.00;3.00;;;;;16.14;67.32;101030.41;5011181;28;45592;-87
2022/10/13 10:19:16;;;;;;;;;3.00;3.00;;;;;15.72;66.82;100962.53;5013898;28;45589;-88
2022/10/13 10:22:03;;;;;;;;;3.75;3.75;;;;;16.47;66.94;101071.00;5013935;28;48736;-87
2022/10/13 10:25:04;;;;;;;;;4.00;4.00;;;;;16.42;66.90;101056.94;5027374;28;45529;-88
2022/10/13 10:27:38;;;;;;;;;3.75;3.75;;;;;16.51;66.37;101069.94;5032401;28;45510;-87
2022/10/13 10:30:13;;;;;;;;;6.00;6.00;;;;;15.40;66.95;100878.44;5025672;28;45517;-88
2022/10/13 10:33:03;;;;;;;;;4.25;4.25;;;;;16.29;66.72;101018.28;5036247;28;46392;-89
2022/10/13 10:35:54;;;;;;;;;3.75;3.00;;;;;16.51;66.52;101050.41;5027679;28;45930;-89
2022/10/13 10:38:47;;;;;;;;;5.00;4.00;;;;;15.84;66.30;100945.28;5071010;27;45209;-87
2022/10/13 10:41:35;;;;;;;;;5.00;3.75;;;;;16.17;66.20;100988.50;5076570;27;45493;-87
2022/10/13 10:44:18;;;;;;;;;5.00;4.75;;;;;16.12;66.55;100955.81;5093180;27;45600;-89
2022/10/13 10:46:56;;;;;;;;;5.75;4.75;;;;;16.51;65.74;101003.22;5098372;27;45387;-92
2022/10/13 10:49:30;;;;;;;;;7.00;5.00;;;;;15.64;66.16;100858.03;5092149;27;45461;-90
2022/10/13 10:51:58;;;;;;;;;4.75;4.75;;;;;16.29;65.71;100965.84;5097830;27;45544;-89
2022/10/13 10:54:30;;;;;;;;;4.75;4.75;;;;;16.77;66.20;101041.41;5078370;27;47079;-85
2022/10/13 10:57:20;;;;;;;;;4.25;4.25;;;;;16.73;65.74;101045.09;5075779;27;45462;-86
2022/10/13 11:00:06;;;;;;;;;7.00;7.00;;;;;16.55;66.03;101027.13;5084175;27;45452;-88
2022/10/13 11:02:51;;;;;;;;;6.00;6.00;;;;;15.73;65.94;100897.69;5080361;27;45461;-91
2022/10/13 11:05:17;;;;;;;;;6.50;6.00;;;;;16.69;66.33;101044.34;5096518;27;45625;-89
2022/10/13 11:07:42;;;;;;;;;3.50;3.50;;;;;16.74;66.35;101040.66;5081351;27;45387;-89
2022/10/13 11:10:16;;;;;;;;;4.25;4.25;;;;;16.76;66.17;101034.34;5079088;27;45354;-88
2022/10/13 11:12:51;;;;;;;;;3.25;3.25;;;;;16.77;65.98;101036.06;5077171;27;45584;-89
2022/10/13 11:15:29;;;;;;;;;5.25;5.00;;;;;16.54;65.74;101006.72;5068570;27;48386;-89
2022/10/13 11:17:58;;;;;;;;;4.75;4.75;;;;;16.75;66.17;101029.91;5079449;27;45465;-89
2022/10/13 11:20:32;;;;;;;;;7.00;7.00;;;;;16.78;66.12;101027.13;5078261;27;45521;-90
2022/10/13 11:22:58;;;;;;;;;10.50;6.00;;;;;16.76;66.08;101026.34;5080735;27;45613;-89
2022/10/13 11:25:43;;;;;;;;;6.00;5.00;;;;;16.76;65.81;101012.09;5074171;27;47884;-88
2022/10/13 11:28:20;;;;;;;;;7.25;7.00;;;;;16.95;66.15;101022.97;5077406;27;45485;-88
2022/10/13 11:30:51;;;;;;;;;7.50;6.00;;;;;17.00;65.62;101020.97;5077114;27;45520;-88
2022/10/13 11:33:50;;;;;;;;;7.75;6.00;;;;;17.08;65.87;101018.00;5076047;27;45525;-89
2022/10/13 11:36:36;;;;;;;;;7.50;6.75;;;;;17.11;65.36;101012.53;5095203;27;45441;-88